createdAt,value
2022-08-25T00:00:35.336Z,20.11
2022-08-25T00:03:04.066Z,20.13
2022-08-25T00:05:33.719Z,20.18
2022-08-25T00:08:06.465Z,20.19
2022-08-25T00:10:37.978Z,20.21
2022-08-25T00:13:07.003Z,20.18
2022-08-25T00:15:36.519Z,20.25
2022-08-25T00:18:05.716Z,20.05
2022-08-25T00:20:49.103Z,20.29
2022-08-25T00:23:19.383Z,20.31
2022-08-25T00:25:48.814Z,20.28
2022-08-25T00:28:18.213Z,20.35
2022-08-25T00:30:46.730Z,20.40
2022-08-25T00:33:15.330Z,20.32
2022-08-25T00:35:45.027Z,20.37
2022-08-25T00:38:14.266Z,20.42
2022-08-25T00:40:44.966Z,20.42
2022-08-25T00:43:14.301Z,20.40
2022-08-25T00:45:42.971Z,20.42
2022-08-25T00:48:11.527Z,20.13
2022-08-25T00:50:40.053Z,20.18
2022-08-25T00:53:09.962Z,20.18
2022-08-25T00:55:42.358Z,20.16
2022-08-25T00:58:17.324Z,20.06
2022-08-25T01:00:49.238Z,20.17
2022-08-25T01:03:19.350Z,20.15
2022-08-25T01:05:49.163Z,20.24
2022-08-25T01:08:21.340Z,20.14
2022-08-25T01:10:51.890Z,20.13
2022-08-25T01:13:27.988Z,20.09
2022-08-25T01:15:59.091Z,20.05
2022-08-25T01:18:28.554Z,20.25
2022-08-25T01:21:00.073Z,20.22
2022-08-25T01:23:28.944Z,20.30
2022-08-25T01:26:03.113Z,20.32
2022-08-25T01:28:32.417Z,20.32
2022-08-25T01:31:01.812Z,20.25
2022-08-25T01:33:30.387Z,20.37
2022-08-25T01:36:00.224Z,20.37
2022-08-25T01:38:28.749Z,20.40
2022-08-25T01:40:57.270Z,20.30
2022-08-25T01:43:33.817Z,20.18
2022-08-25T01:46:02.556Z,20.31
2022-08-25T01:48:32.975Z,20.33
2022-08-25T01:51:02.938Z,20.37
2022-08-25T01:53:33.864Z,20.42
2022-08-25T01:56:11.824Z,20.46
2022-08-25T01:58:43.056Z,20.48
2022-08-25T02:01:17.784Z,20.53
2022-08-25T02:03:49.941Z,20.30
2022-08-25T02:06:27.670Z,20.42
2022-08-25T02:09:01.395Z,20.42
2022-08-25T02:11:30.487Z,20.30
2022-08-25T02:14:00.085Z,20.26
2022-08-25T02:16:32.231Z,20.15
2022-08-25T02:19:01.213Z,20.01
2022-08-25T02:21:32.817Z,20.04
2022-08-25T02:24:01.534Z,20.09
2022-08-25T02:26:30.857Z,20.19
2022-08-25T02:28:59.421Z,20.19
2022-08-25T02:31:28.742Z,20.37
2022-08-25T02:33:57.836Z,20.18
2022-08-25T02:36:27.043Z,20.36
2022-08-25T02:38:57.269Z,20.37
2022-08-25T02:41:30.967Z,20.41
2022-08-25T02:44:01.675Z,20.42
2022-08-25T02:46:31.285Z,20.19
2022-08-25T02:49:00.221Z,19.99
2022-08-25T02:51:30.368Z,20.14
2022-08-25T02:54:02.940Z,20.12
2022-08-25T02:56:31.801Z,20.12
2022-08-25T02:59:00.295Z,19.94
2022-08-25T03:01:30.331Z,19.91
2022-08-25T03:03:59.318Z,19.87
2022-08-25T03:06:28.329Z,19.81
2022-08-25T03:08:57.427Z,19.78
2022-08-25T03:11:27.562Z,19.81
2022-08-25T03:14:07.163Z,19.74
2022-08-25T03:16:36.131Z,19.49
2022-08-25T03:19:05.664Z,19.57
2022-08-25T03:21:34.620Z,19.67
2022-08-25T03:24:03.540Z,19.45
2022-08-25T03:26:51.304Z,19.80
2022-08-25T03:29:20.300Z,19.92
2022-08-25T03:31:49.344Z,19.99
2022-08-25T03:34:20.324Z,20.00
2022-08-25T03:36:53.504Z,20.02
2022-08-25T03:39:23.896Z,19.99
2022-08-25T03:41:54.437Z,19.99
2022-08-25T03:44:24.239Z,20.07
2022-08-25T03:46:53.541Z,20.03
2022-08-25T03:49:24.834Z,20.03
2022-08-25T03:51:55.628Z,19.82
2022-08-25T03:54:26.870Z,19.76
2022-08-25T03:56:56.977Z,19.71
2022-08-25T03:59:27.283Z,19.89
2022-08-25T04:05:06.569Z,20.01
2022-08-25T04:07:35.467Z,19.84
2022-08-25T04:10:04.190Z,19.89
2022-08-25T04:12:34.465Z,19.77
2022-08-25T04:15:03.210Z,19.79
2022-08-25T04:17:31.756Z,19.80
2022-08-25T04:20:00.519Z,19.73
2022-08-25T04:22:29.346Z,19.67
2022-08-25T04:25:00.234Z,19.51
2022-08-25T04:27:29.391Z,19.64
2022-08-25T04:29:59.553Z,19.67
2022-08-25T04:32:28.129Z,19.68
2022-08-25T04:34:56.923Z,19.70
2022-08-25T04:37:25.438Z,19.81
2022-08-25T04:39:54.154Z,19.76
2022-08-25T04:42:23.170Z,19.64
2022-08-25T04:44:51.772Z,19.67
2022-08-25T04:47:21.920Z,19.63
2022-08-25T04:49:50.461Z,19.66
2022-08-25T04:52:19.349Z,19.67
2022-08-25T04:54:48.450Z,19.71
2022-08-25T04:57:17.014Z,19.86
2022-08-25T04:59:45.897Z,19.90
2022-08-25T05:02:15.166Z,19.95
2022-08-25T05:04:45.566Z,20.06
2022-08-25T05:07:14.601Z,19.86
2022-08-25T05:09:43.373Z,20.02
2022-08-25T05:12:12.273Z,19.94
2022-08-25T05:14:41.634Z,20.07
2022-08-25T05:17:10.447Z,20.00
2022-08-25T05:19:39.244Z,19.99
2022-08-25T05:22:10.460Z,20.09
2022-08-25T05:24:39.241Z,20.09
2022-08-25T05:27:07.927Z,20.17
2022-08-25T05:29:37.115Z,20.18
2022-08-25T05:32:06.243Z,20.14
2022-08-25T05:34:34.980Z,20.17
2022-08-25T05:37:05.958Z,20.16
2022-08-25T05:39:37.552Z,20.21
2022-08-25T05:42:07.005Z,20.17
2022-08-25T05:44:35.780Z,20.10
2022-08-25T05:47:05.219Z,20.31
2022-08-25T05:49:34.236Z,20.34
2022-08-25T05:52:03.038Z,20.21
2022-08-25T05:54:33.893Z,20.38
2022-08-25T05:57:04.388Z,20.04
2022-08-25T05:59:33.132Z,20.25
2022-08-25T06:02:19.400Z,20.09
2022-08-25T06:04:48.610Z,20.13
2022-08-25T06:07:17.452Z,20.21
2022-08-25T06:09:49.191Z,20.31
2022-08-25T06:12:21.891Z,20.13
2022-08-25T06:14:50.808Z,20.23
2022-08-25T06:17:19.782Z,20.44
2022-08-25T06:19:48.541Z,20.43
2022-08-25T06:22:17.358Z,20.53
2022-08-25T06:24:46.288Z,20.51
2022-08-25T06:27:15.381Z,20.49
2022-08-25T06:29:46.184Z,20.61
2022-08-25T06:32:15.337Z,20.60
2022-08-25T06:34:44.095Z,20.50
2022-08-25T06:37:13.033Z,20.66
2022-08-25T06:39:42.303Z,20.70
2022-08-25T06:42:11.299Z,20.72
2022-08-25T06:44:41.338Z,20.76
2022-08-25T06:47:11.802Z,20.70
2022-08-25T06:49:40.600Z,20.63
2022-08-25T06:52:09.960Z,20.58
2022-08-25T06:54:38.936Z,20.71
2022-08-25T06:57:08.973Z,20.76
2022-08-25T06:59:38.970Z,20.90
2022-08-25T07:02:12.237Z,21.01
2022-08-25T07:04:41.161Z,21.35
2022-08-25T07:07:10.230Z,21.61
2022-08-25T07:09:39.354Z,21.92
2022-08-25T07:12:09.060Z,22.16
2022-08-25T07:14:38.242Z,22.00
2022-08-25T07:17:11.055Z,21.80
2022-08-25T07:19:43.352Z,22.08
2022-08-25T07:22:13.149Z,22.38
2022-08-25T07:24:42.839Z,22.41
2022-08-25T07:27:11.804Z,22.29
2022-08-25T07:29:42.221Z,22.79
2022-08-25T07:32:12.093Z,23.49
2022-08-25T07:34:59.587Z,24.01
2022-08-25T07:37:48.186Z,25.45
2022-08-25T07:40:20.230Z,26.87
2022-08-25T07:42:50.929Z,27.86
2022-08-25T07:45:25.576Z,28.97
2022-08-25T07:47:54.736Z,29.28
2022-08-25T07:50:25.470Z,30.53
2022-08-25T07:52:55.156Z,31.00
2022-08-25T07:55:26.178Z,31.36
2022-08-25T07:57:57.522Z,30.90
2022-08-25T08:00:28.517Z,30.66
2022-08-25T08:03:07.014Z,30.00
2022-08-25T08:05:41.672Z,30.25
2022-08-25T08:08:10.457Z,30.34
2022-08-25T08:11:04.025Z,30.88
2022-08-25T08:13:33.172Z,31.16
2022-08-25T08:16:09.561Z,30.85
2022-08-25T08:18:39.897Z,30.75
2022-08-25T08:21:13.275Z,30.63
2022-08-25T08:23:49.308Z,30.73
2022-08-25T08:26:19.288Z,30.89
2022-08-25T08:28:51.828Z,31.84
2022-08-25T08:31:21.477Z,33.81
2022-08-25T08:33:51.376Z,36.33
2022-08-25T08:36:21.705Z,36.68
2022-08-25T08:38:54.383Z,37.31
2022-08-25T08:42:12.496Z,37.73
2022-08-25T08:44:58.030Z,39.64
2022-08-25T08:47:38.404Z,40.46
2022-08-25T08:50:23.120Z,39.47
2022-08-25T08:53:02.006Z,39.29
2022-08-25T08:55:35.047Z,39.78
2022-08-25T08:58:08.686Z,42.18
2022-08-25T09:00:41.674Z,42.70
2022-08-25T09:03:34.871Z,43.34
2022-08-25T09:06:07.184Z,44.12
2022-08-25T09:08:39.148Z,44.20
2022-08-25T09:11:24.398Z,44.39
2022-08-25T09:14:10.698Z,44.27
2022-08-25T09:16:58.251Z,43.77
2022-08-25T09:19:43.463Z,43.87
2022-08-25T09:22:35.995Z,44.43
2022-08-25T09:25:21.930Z,44.85
2022-08-25T09:28:08.237Z,45.36
2022-08-25T09:30:46.442Z,45.36
2022-08-25T09:33:20.937Z,44.87
2022-08-25T09:35:51.874Z,41.87
2022-08-25T09:38:22.851Z,44.06
2022-08-25T09:40:56.962Z,45.20
2022-08-25T09:43:33.291Z,44.06
2022-08-25T09:46:10.724Z,44.84
2022-08-25T09:48:46.506Z,43.82
2022-08-25T09:51:22.021Z,45.14
2022-08-25T09:53:56.218Z,44.65
2022-08-25T09:56:28.803Z,45.96
2022-08-25T09:59:03.086Z,46.72
2022-08-25T10:01:34.992Z,46.27
2022-08-25T10:04:05.899Z,46.60
2022-08-25T10:06:45.578Z,45.88
2022-08-25T10:09:26.905Z,46.81
2022-08-25T10:12:00.120Z,48.37
2022-08-25T10:14:36.383Z,48.29
2022-08-25T10:17:27.614Z,48.24
2022-08-25T10:20:17.358Z,47.89
2022-08-25T10:22:48.189Z,48.59
2022-08-25T10:25:27.092Z,48.20
2022-08-25T10:28:12.583Z,47.20
2022-08-25T10:31:00.475Z,47.55
2022-08-25T10:33:39.220Z,47.96
2022-08-25T10:36:16.402Z,46.87
2022-08-25T10:38:55.365Z,46.35
2022-08-25T10:41:41.028Z,47.00
2022-08-25T10:44:37.326Z,43.12
2022-08-25T10:47:28.939Z,42.99
2022-08-25T10:50:05.512Z,41.70
2022-08-25T10:52:45.246Z,42.17
2022-08-25T10:55:20.079Z,42.11
2022-08-25T10:57:57.614Z,42.42
2022-08-25T11:00:35.380Z,42.59
2022-08-25T11:03:25.508Z,40.92
2022-08-25T11:06:01.733Z,44.38
2022-08-25T11:08:36.545Z,43.26
2022-08-25T11:11:10.883Z,44.00
2022-08-25T11:13:45.198Z,44.91
2022-08-25T11:16:20.213Z,47.20
2022-08-25T11:18:56.191Z,47.25
2022-08-25T11:21:31.373Z,45.89
2022-08-25T11:24:09.409Z,41.83
2022-08-25T11:26:43.168Z,40.36
2022-08-25T11:29:16.635Z,40.67
2022-08-25T11:31:53.308Z,39.31
2022-08-25T11:34:23.579Z,42.50
2022-08-25T11:36:56.037Z,43.31
2022-08-25T11:39:40.212Z,44.86
2022-08-25T11:42:22.923Z,45.38
2022-08-25T11:45:03.968Z,45.56
2022-08-25T11:47:55.780Z,45.34
2022-08-25T11:50:31.407Z,41.35
2022-08-25T11:53:16.955Z,40.76
2022-08-25T11:55:50.241Z,40.84
2022-08-25T11:58:32.822Z,42.40
2022-08-25T12:01:03.430Z,39.98
2022-08-25T12:03:53.344Z,39.72
2022-08-25T12:06:29.703Z,38.85
2022-08-25T12:09:22.790Z,38.28
2022-08-25T12:11:59.467Z,37.87
2022-08-25T12:14:46.383Z,37.02
2022-08-25T12:17:25.497Z,36.57
2022-08-25T12:20:01.705Z,36.24
2022-08-25T12:22:55.417Z,35.41
2022-08-25T12:25:47.667Z,35.26
2022-08-25T12:28:39.183Z,35.38
2022-08-25T12:31:19.309Z,35.17
2022-08-25T12:34:04.628Z,35.14
2022-08-25T12:36:35.741Z,34.47
2022-08-25T12:39:24.500Z,32.78
2022-08-25T12:41:57.278Z,32.27
2022-08-25T12:44:41.262Z,32.20
2022-08-25T12:47:28.228Z,32.59
2022-08-25T12:50:33.355Z,32.43
2022-08-25T12:53:12.495Z,32.68
2022-08-25T12:55:47.828Z,33.15
2022-08-25T12:58:17.949Z,32.89
2022-08-25T13:01:09.315Z,33.51
2022-08-25T13:04:14.088Z,33.84
2022-08-25T13:06:57.116Z,34.10
2022-08-25T13:10:02.054Z,33.81
2022-08-25T13:12:39.136Z,34.21
2022-08-25T13:15:14.303Z,34.09
2022-08-25T13:17:43.936Z,34.58
2022-08-25T13:20:19.999Z,34.65
2022-08-25T13:22:55.262Z,34.51
2022-08-25T13:25:32.019Z,34.31
2022-08-25T13:28:04.374Z,34.09
2022-08-25T13:30:36.504Z,33.53
2022-08-25T13:33:20.125Z,33.99
2022-08-25T13:35:50.317Z,34.28
2022-08-25T13:38:20.064Z,34.55
2022-08-25T13:40:50.799Z,34.57
2022-08-25T13:43:22.521Z,34.39
2022-08-25T13:45:56.844Z,34.28
2022-08-25T13:48:35.160Z,34.44
2022-08-25T13:51:22.627Z,34.37
2022-08-25T13:53:59.098Z,34.31
2022-08-25T13:56:40.693Z,34.42
2022-08-25T13:59:23.135Z,34.59
2022-08-25T14:01:54.398Z,34.72
2022-08-25T14:04:33.062Z,34.56
2022-08-25T14:07:25.135Z,34.63
2022-08-25T14:09:55.918Z,34.57
2022-08-25T14:12:39.696Z,34.50
2022-08-25T14:15:31.995Z,34.55
2022-08-25T14:18:05.640Z,34.22
2022-08-25T14:20:37.474Z,34.21
2022-08-25T14:23:10.253Z,33.86
2022-08-25T14:25:40.478Z,34.06
2022-08-25T14:28:15.553Z,33.96
2022-08-25T14:30:49.465Z,33.95
2022-08-25T14:33:23.840Z,33.94
2022-08-25T14:35:55.571Z,34.04
2022-08-25T14:38:25.956Z,33.97
2022-08-25T14:40:55.002Z,34.27
2022-08-25T14:43:31.467Z,34.33
2022-08-25T14:46:02.600Z,33.95
2022-08-25T14:48:37.209Z,34.13
2022-08-25T14:51:06.381Z,34.18
2022-08-25T14:53:35.299Z,34.17
2022-08-25T14:56:06.883Z,34.16
2022-08-25T14:58:48.470Z,34.04
2022-08-25T15:01:29.264Z,33.86
2022-08-25T15:04:03.771Z,33.82
2022-08-25T15:06:32.840Z,33.62
2022-08-25T15:09:11.166Z,33.78
2022-08-25T15:11:42.476Z,33.74
2022-08-25T15:14:15.849Z,33.61
2022-08-25T15:16:49.467Z,33.70
2022-08-25T15:19:20.346Z,33.46
2022-08-25T15:21:49.782Z,33.50
2022-08-25T15:24:19.928Z,33.47
2022-08-25T15:29:29.919Z,33.43
2022-08-25T15:32:00.320Z,33.47
2022-08-25T15:34:29.389Z,33.43
2022-08-25T15:36:59.177Z,33.53
2022-08-25T15:39:27.877Z,33.45
2022-08-25T15:41:57.293Z,33.38
2022-08-25T15:44:29.730Z,33.46
2022-08-25T15:46:59.488Z,33.46
2022-08-25T15:49:31.231Z,33.34
2022-08-25T15:52:00.422Z,33.48
2022-08-25T15:54:30.364Z,33.50
2022-08-25T15:56:59.934Z,33.32
2022-08-25T15:59:30.783Z,33.13
2022-08-25T16:02:00.558Z,32.99
2022-08-25T16:04:30.314Z,33.06
2022-08-25T16:07:01.346Z,33.16
2022-08-25T16:09:31.403Z,33.15
2022-08-25T16:12:05.396Z,33.07
2022-08-25T16:14:36.827Z,33.08
2022-08-25T16:17:06.919Z,33.00
2022-08-25T16:19:35.748Z,32.80
2022-08-25T16:22:08.900Z,32.64
2022-08-25T16:24:42.139Z,32.55
2022-08-25T16:27:12.165Z,32.50
2022-08-25T16:29:44.354Z,32.36
2022-08-25T16:32:14.301Z,32.39
2022-08-25T16:34:44.248Z,32.45
2022-08-25T16:37:13.751Z,32.45
2022-08-25T16:39:46.145Z,32.47
2022-08-25T16:42:15.362Z,32.42
2022-08-25T16:44:45.253Z,32.42
2022-08-25T16:47:14.426Z,32.42
2022-08-25T16:49:47.025Z,32.45
2022-08-25T16:52:33.509Z,32.28
2022-08-25T16:55:14.435Z,32.35
2022-08-25T16:57:45.500Z,32.43
2022-08-25T17:00:22.013Z,32.25
2022-08-25T17:02:51.643Z,32.20
2022-08-25T17:05:20.325Z,32.12
2022-08-25T17:08:09.074Z,32.04
2022-08-25T17:10:41.282Z,32.13
2022-08-25T17:13:10.849Z,32.09
2022-08-25T17:15:43.989Z,31.95
2022-08-25T17:18:13.983Z,31.84
2022-08-25T17:20:44.777Z,31.85
2022-08-25T17:23:14.375Z,31.68
2022-08-25T17:25:44.027Z,31.86
2022-08-25T17:28:13.236Z,31.86
2022-08-25T17:30:43.627Z,31.72
2022-08-25T17:33:12.519Z,31.57
2022-08-25T17:35:41.998Z,31.77
2022-08-25T17:38:10.815Z,31.59
2022-08-25T17:40:40.154Z,31.46
2022-08-25T17:43:09.756Z,31.47
2022-08-25T17:45:39.341Z,31.32
2022-08-25T17:48:10.381Z,31.33
2022-08-25T17:50:39.426Z,31.23
2022-08-25T17:53:09.370Z,31.21
2022-08-25T17:55:38.574Z,31.13
2022-08-25T17:58:07.128Z,31.13
2022-08-25T18:00:42.882Z,31.05
2022-08-25T18:03:14.310Z,30.98
2022-08-25T18:05:44.202Z,30.99
2022-08-25T18:08:14.659Z,30.93
2022-08-25T18:10:44.035Z,30.70
2022-08-25T18:13:12.961Z,30.71
2022-08-25T18:15:43.746Z,30.44
2022-08-25T18:18:14.415Z,30.10
2022-08-25T18:20:46.624Z,29.82
2022-08-25T18:23:15.758Z,29.76
2022-08-25T18:25:44.854Z,29.61
2022-08-25T18:28:13.615Z,29.49
2022-08-25T18:30:43.352Z,29.39
2022-08-25T18:33:13.834Z,29.22
2022-08-25T18:35:42.894Z,29.14
2022-08-25T18:38:28.695Z,28.99
2022-08-25T18:40:58.691Z,28.94
2022-08-25T18:43:31.258Z,28.87
2022-08-25T18:46:04.688Z,28.77
2022-08-25T18:48:35.023Z,28.62
2022-08-25T18:51:04.554Z,28.60
2022-08-25T18:53:49.539Z,28.53
2022-08-25T18:56:18.872Z,28.47
2022-08-25T18:58:47.927Z,28.38
2022-08-25T19:01:16.891Z,28.21
2022-08-25T19:03:48.439Z,28.17
2022-08-25T19:06:17.181Z,28.11
2022-08-25T19:08:48.090Z,27.99
2022-08-25T19:11:17.519Z,27.91
2022-08-25T19:13:51.629Z,27.84
2022-08-25T19:16:32.471Z,27.71
2022-08-25T19:19:04.331Z,27.67
2022-08-25T19:21:35.593Z,27.59
2022-08-25T19:24:04.509Z,27.52
2022-08-25T19:26:35.903Z,27.42
2022-08-25T19:29:09.613Z,27.40
2022-08-25T19:31:39.331Z,27.29
2022-08-25T19:34:11.094Z,27.18
2022-08-25T19:36:39.965Z,27.09
2022-08-25T19:39:12.802Z,27.06
2022-08-25T19:41:42.130Z,27.00
2022-08-25T19:44:12.525Z,26.94
2022-08-25T19:46:43.080Z,26.89
2022-08-25T19:49:16.334Z,26.73
2022-08-25T19:51:51.043Z,26.75
2022-08-25T19:54:24.177Z,26.58
2022-08-25T19:56:54.464Z,26.51
2022-08-25T19:59:25.801Z,26.56
2022-08-25T20:01:55.167Z,26.49
2022-08-25T20:04:25.274Z,26.50
2022-08-25T20:06:55.314Z,26.42
2022-08-25T20:09:38.992Z,26.42
2022-08-25T20:12:11.968Z,26.27
2022-08-25T20:14:41.439Z,26.18
2022-08-25T20:17:23.855Z,26.07
2022-08-25T20:19:57.331Z,26.08
2022-08-25T20:22:27.165Z,26.07
2022-08-25T20:24:57.943Z,26.01
2022-08-25T20:27:34.822Z,25.92
2022-08-25T20:30:05.335Z,25.88
2022-08-25T20:32:35.745Z,25.81
2022-08-25T20:35:09.297Z,25.62
2022-08-25T20:37:42.074Z,25.63
2022-08-25T20:40:12.143Z,25.46
2022-08-25T20:42:40.779Z,25.52
2022-08-25T20:45:13.574Z,25.42
2022-08-25T20:47:44.631Z,25.40
2022-08-25T20:50:15.115Z,25.35
2022-08-25T20:52:44.084Z,25.25
2022-08-25T20:55:13.965Z,25.31
2022-08-25T20:57:42.474Z,25.42
2022-08-25T21:00:12.915Z,25.37
2022-08-25T21:02:41.499Z,25.30
2022-08-25T21:05:10.450Z,25.33
2022-08-25T21:07:40.737Z,25.20
2022-08-25T21:10:14.074Z,25.17
2022-08-25T21:12:43.334Z,25.08
2022-08-25T21:15:13.148Z,24.90
2022-08-25T21:17:51.410Z,24.95
2022-08-25T21:20:21.222Z,24.77
2022-08-25T21:22:51.606Z,24.69
2022-08-25T21:25:22.067Z,24.82
2022-08-25T21:27:50.616Z,24.63
2022-08-25T21:30:19.306Z,24.55
2022-08-25T21:32:52.886Z,24.66
2022-08-25T21:35:23.337Z,24.47
2022-08-25T21:37:53.815Z,24.54
2022-08-25T21:40:23.390Z,24.49
2022-08-25T21:42:52.415Z,24.47
2022-08-25T21:45:21.667Z,24.40
2022-08-25T21:47:51.984Z,24.37
2022-08-25T21:50:21.353Z,24.33
2022-08-25T21:52:54.516Z,24.31
2022-08-25T21:55:25.195Z,24.15
2022-08-25T21:57:54.861Z,24.25
2022-08-25T22:00:24.111Z,24.26
2022-08-25T22:02:53.749Z,24.24
2022-08-25T22:05:22.436Z,24.14
2022-08-25T22:07:50.887Z,24.17
2022-08-25T22:10:20.857Z,23.70
2022-08-25T22:12:50.765Z,23.45
2022-08-25T22:15:20.457Z,23.51
2022-08-25T22:17:49.448Z,23.57
2022-08-25T22:20:19.796Z,23.60
2022-08-25T22:22:48.933Z,23.69
2022-08-25T22:25:18.358Z,23.71
2022-08-25T22:27:48.027Z,23.79
2022-08-25T22:30:27.666Z,23.66
2022-08-25T22:32:59.646Z,23.74
2022-08-25T22:35:28.711Z,23.73
2022-08-25T22:37:57.202Z,23.61
2022-08-25T22:40:27.173Z,23.65
2022-08-25T22:42:57.675Z,23.59
2022-08-25T22:45:29.286Z,23.58
2022-08-25T22:47:57.941Z,23.33
2022-08-25T22:50:27.385Z,23.25
2022-08-25T22:52:56.138Z,23.29
2022-08-25T22:55:24.802Z,23.28
2022-08-25T22:57:56.691Z,23.06
2022-08-25T23:00:25.631Z,22.86
2022-08-25T23:02:56.222Z,22.72
2022-08-25T23:05:24.799Z,22.71
2022-08-25T23:07:53.295Z,22.76
2022-08-25T23:10:22.921Z,22.74
2022-08-25T23:12:51.749Z,22.64
2022-08-25T23:15:20.432Z,22.73
2022-08-25T23:17:50.076Z,22.82
2022-08-25T23:20:37.942Z,22.74
2022-08-25T23:23:14.057Z,22.77
2022-08-25T23:25:42.811Z,22.88
2022-08-25T23:28:11.341Z,22.89
2022-08-25T23:30:40.104Z,22.90
2022-08-25T23:33:15.212Z,22.89
2022-08-25T23:35:50.690Z,22.85
2022-08-25T23:38:19.185Z,22.77
2022-08-25T23:40:48.112Z,22.76
2022-08-25T23:43:16.591Z,22.72
2022-08-25T23:45:46.565Z,22.68
2022-08-25T23:48:15.343Z,22.72
2022-08-25T23:50:54.019Z,22.75
2022-08-25T23:53:22.857Z,22.73
2022-08-25T23:55:53.046Z,22.71
2022-08-25T23:58:22.717Z,22.68
